Time;durP1;ratioP1;P1;durP2;ratioP2;P2;SDS_P1;SDS_P2;PMS_P1;PMS_P2;Temp;Humidity;BMP_temperature;BMP_pressure;BME280_temperature;BME280_humidity;BME280_pressure;Samples;Min_cycle;Max_cycle;Signal;HPM_P1;HPM_P2
2022/05/12 00:02:12;;;;;;;6.30;4.10;;;;;;;17.57;47.50;96497.88;107721;1268;36795;-80
2022/05/12 00:04:43;;;;;;;6.60;4.60;;;;;;;17.54;47.52;96494.02;107785;1268;34882;-80
2022/05/12 00:07:14;;;;;;;4.40;3.70;;;;;;;17.53;47.53;96495.42;107690;1268;38039;-80
2022/05/12 00:09:46;;;;;;;5.10;3.80;;;;;;;17.49;47.51;96496.77;107754;1268;41861;-80
2022/05/12 00:12:17;;;;;;;5.50;4.20;;;;;;;17.49;47.53;96491.02;107792;1265;36944;-80
2022/05/12 00:14:48;;;;;;;6.00;4.30;;;;;;;17.45;47.55;96495.76;107769;1268;39251;-80
2022/05/12 00:17:19;;;;;;;6.20;3.70;;;;;;;17.43;47.59;96491.91;107702;1268;36149;-79
2022/05/12 00:19:50;;;;;;;7.70;4.10;;;;;;;17.39;47.62;96494.37;107711;1268;39180;-79
2022/05/12 00:22:21;;;;;;;5.00;4.00;;;;;;;17.38;47.66;96493.25;107731;1268;36413;-80
2022/05/12 00:24:52;;;;;;;5.10;4.00;;;;;;;17.37;47.61;96492.85;107670;1268;44038;-79
2022/05/12 00:27:23;;;;;;;6.40;4.30;;;;;;;17.37;47.55;96494.46;107719;1265;36064;-79
2022/05/12 00:29:53;;;;;;;6.90;4.50;;;;;;;17.38;47.45;96494.03;107771;1268;32600;-80
2022/05/12 00:32:24;;;;;;;6.30;4.00;;;;;;;17.39;47.34;96493.01;107708;1268;33678;-79
2022/05/12 00:34:55;;;;;;;5.10;4.10;;;;;;;17.43;47.25;96484.94;107662;1268;33350;-80
2022/05/12 00:37:26;;;;;;;6.00;4.40;;;;;;;17.41;47.41;96486.38;107720;1268;39960;-80
2022/05/12 00:39:57;;;;;;;6.30;4.20;;;;;;;17.33;47.43;96492.84;107699;1270;37851;-79
2022/05/12 00:42:28;;;;;;;6.30;4.20;;;;;;;17.31;47.48;96488.45;107638;1270;38666;-80
2022/05/12 00:44:59;;;;;;;4.70;3.80;;;;;;;17.31;47.48;96489.91;107660;1268;33576;-80
2022/05/12 00:47:30;;;;;;;5.20;4.30;;;;;;;17.30;47.57;96488.48;107676;1268;42045;-80
2022/05/12 00:50:01;;;;;;;5.90;4.20;;;;;;;17.26;47.59;96484.52;107656;1268;34200;-79
2022/05/12 00:52:31;;;;;;;6.10;4.00;;;;;;;17.24;47.63;96482.61;107709;1268;38417;-80
2022/05/12 00:55:09;;;;;;;7.00;4.10;;;;;;;17.25;47.64;96486.08;107654;1268;42889;-80
2022/05/12 00:57:45;;;;;;;6.40;4.20;;;;;;;17.25;47.61;96484.78;107677;1268;43745;-80
2022/05/12 01:00:18;;;;;;;5.90;4.20;;;;;;;17.23;47.66;96481.04;107809;1268;44806;-80
2022/05/12 01:02:54;;;;;;;6.20;4.30;;;;;;;17.20;47.72;96480.42;107740;1268;41595;-79
2022/05/12 01:05:26;;;;;;;5.30;4.00;;;;;;;17.17;47.81;96480.66;107711;1268;37991;-80
2022/05/12 01:07:58;;;;;;;7.70;4.80;;;;;;;17.12;47.95;96476.49;107675;1268;38172;-80
2022/05/12 01:10:30;;;;;;;6.70;4.20;;;;;;;17.07;48.07;96473.00;107730;1268;39677;-79
2022/05/12 01:13:01;;;;;;;5.80;4.30;;;;;;;16.98;48.28;96473.09;107662;1268;36657;-79
2022/05/12 01:15:32;;;;;;;6.10;4.40;;;;;;;16.87;48.50;96476.89;107705;1268;36265;-80
2022/05/12 01:18:09;;;;;;;5.00;4.10;;;;;;;16.78;48.67;96475.14;107694;1268;38748;-80
2022/05/12 01:20:41;;;;;;;7.40;4.60;;;;;;;16.70;48.84;96473.42;107699;1268;57437;-79
2022/05/12 01:23:21;;;;;;;6.30;4.60;;;;;;;16.65;49.01;96472.83;107760;1268;32731;-80
2022/05/12 01:25:55;;;;;;;7.10;3.80;;;;;;;16.57;49.21;96473.17;107692;1268;42554;-79
2022/05/12 01:28:26;;;;;;;7.20;4.10;;;;;;;16.49;49.47;96472.67;107679;1270;34935;-79
2022/05/12 01:30:58;;;;;;;6.60;4.10;;;;;;;16.37;49.63;96470.38;107638;1270;37506;-80
2022/05/12 01:33:30;;;;;;;6.60;4.10;;;;;;;16.28;49.84;96469.05;107702;1268;34695;-79
2022/05/12 01:36:01;;;;;;;6.70;4.40;;;;;;;16.21;50.08;96467.11;107676;1268;40714;-80
2022/05/12 01:38:32;;;;;;;6.70;4.50;;;;;;;16.17;50.23;96466.57;107666;1270;51187;-79
2022/05/12 01:41:03;;;;;;;8.00;4.30;;;;;;;16.10;50.51;96469.73;107691;1270;39097;-80
2022/05/12 01:43:34;;;;;;;4.70;3.90;;;;;;;16.08;50.57;96465.39;107649;1270;42271;-80
2022/05/12 01:46:05;;;;;;;4.90;3.30;;;;;;;16.20;50.29;96459.71;107715;1270;32068;-79
2022/05/12 01:48:36;;;;;;;7.80;4.00;;;;;;;16.46;49.61;96456.05;107740;1268;40434;-80
2022/05/12 01:51:08;;;;;;;4.90;3.50;;;;;;;16.85;49.05;96457.52;107686;1268;41502;-80
2022/05/12 01:53:39;;;;;;;4.70;3.40;;;;;;;17.07;48.42;96451.87;107684;1268;42980;-80
2022/05/12 01:56:10;;;;;;;5.50;3.30;;;;;;;17.27;47.30;96444.45;107685;1270;34909;-80
2022/05/12 01:58:41;;;;;;;4.70;3.50;;;;;;;17.61;46.55;96445.27;107596;1270;38977;-80
2022/05/12 02:01:12;;;;;;;6.90;3.70;;;;;;;17.84;45.68;96442.30;107686;1268;41870;-80
2022/05/12 02:03:43;;;;;;;5.00;3.60;;;;;;;18.00;45.56;96442.72;107651;1268;36250;-80
2022/05/12 02:06:14;;;;;;;7.00;3.40;;;;;;;17.98;45.62;96445.35;107625;1270;36378;-80
2022/05/12 02:08:45;;;;;;;5.00;3.10;;;;;;;18.05;45.05;96436.52;107759;1268;35901;-80
2022/05/12 02:11:15;;;;;;;4.60;3.20;;;;;;;18.13;44.73;96439.09;107793;1268;31426;-80
2022/05/12 02:13:46;;;;;;;5.10;3.30;;;;;;;18.19;44.65;96438.33;107816;1268;31445;-80
2022/05/12 02:16:17;;;;;;;4.80;3.70;;;;;;;18.16;44.76;96443.55;107758;1268;40711;-79
2022/05/12 02:18:48;;;;;;;4.30;3.70;;;;;;;18.11;44.91;96443.78;107647;1268;43244;-77
2022/05/12 02:21:19;;;;;;;5.50;3.60;;;;;;;18.02;45.08;96446.40;107669;1268;43338;-78
2022/05/12 02:23:50;;;;;;;6.80;4.10;;;;;;;17.96;45.09;96436.01;107723;1268;36870;-80
2022/05/12 02:26:22;;;;;;;5.60;4.00;;;;;;;17.93;45.26;96444.84;107664;1268;42160;-80
2022/05/12 02:28:53;;;;;;;6.10;3.00;;;;;;;17.85;45.48;96441.32;107680;1268;39023;-80
2022/05/12 02:31:24;;;;;;;5.70;3.90;;;;;;;17.76;45.64;96434.89;107722;1268;42790;-80
2022/05/12 02:33:55;;;;;;;5.40;3.80;;;;;;;17.68;45.90;96434.30;107695;1268;36374;-79
2022/05/12 02:36:26;;;;;;;4.90;4.10;;;;;;;17.60;46.23;96434.66;107628;1270;38939;-79
2022/05/12 02:38:56;;;;;;;4.80;4.10;;;;;;;17.48;46.45;96438.36;107637;1270;38020;-80
2022/05/12 02:41:27;;;;;;;7.40;3.70;;;;;;;17.38;46.74;96441.89;107688;1268;43598;-80
2022/05/12 02:43:58;;;;;;;5.80;3.90;;;;;;;17.28;46.99;96437.89;107683;1268;35831;-80
2022/05/12 02:46:29;;;;;;;5.30;4.20;;;;;;;17.18;47.24;96432.66;107716;1268;43496;-80
2022/05/12 02:49:00;;;;;;;5.20;4.40;;;;;;;17.10;47.39;96432.33;107695;1270;43554;-79
2022/05/12 02:51:30;;;;;;;5.40;4.00;;;;;;;17.04;47.59;96440.44;107739;1268;30406;-80
2022/05/12 02:54:01;;;;;;;4.90;3.70;;;;;;;17.06;47.70;96441.36;107672;1270;40770;-79
2022/05/12 02:56:32;;;;;;;6.90;3.40;;;;;;;17.10;47.63;96434.17;107677;1268;42807;-80
2022/05/12 02:59:03;;;;;;;5.50;2.90;;;;;;;17.32;47.44;96433.25;107709;1268;37879;-80
2022/05/12 03:01:34;;;;;;;5.40;2.80;;;;;;;17.58;46.69;96437.34;107619;1267;43163;-80
2022/05/12 03:04:06;;;;;;;4.40;2.40;;;;;;;17.87;46.02;96432.69;107744;1268;32178;-80
2022/05/12 03:06:37;;;;;;;4.70;2.90;;;;;;;18.04;45.37;96429.52;107646;1268;43571;-80
2022/05/12 03:09:10;;;;;;;6.00;3.70;;;;;;;18.13;45.44;96447.86;107723;1268;40833;-80
2022/05/12 03:11:41;;;;;;;5.50;3.60;;;;;;;18.09;45.54;96447.18;107652;1270;41589;-80
2022/05/12 03:14:12;;;;;;;6.20;4.30;;;;;;;18.02;45.66;96446.02;107707;1268;40355;-80
2022/05/12 03:16:43;;;;;;;4.60;3.70;;;;;;;17.95;45.79;96453.73;107674;1268;38958;-80
2022/05/12 03:19:14;;;;;;;5.80;3.70;;;;;;;17.90;45.81;96453.04;107644;1268;50850;-80
2022/05/12 03:21:46;;;;;;;5.80;3.90;;;;;;;17.84;45.95;96455.48;107764;1268;33550;-80
2022/05/12 03:24:18;;;;;;;5.10;3.80;;;;;;;17.72;46.27;96456.17;107757;1268;40994;-80
2022/05/12 03:26:49;;;;;;;5.60;3.70;;;;;;;17.64;46.30;96458.27;107713;1268;32787;-79
2022/05/12 03:29:20;;;;;;;4.40;3.70;;;;;;;17.66;46.42;96456.57;107669;1268;38745;-79
2022/05/12 03:31:51;;;;;;;7.10;4.00;;;;;;;17.66;46.43;96452.66;107677;1268;42894;-79
2022/05/12 03:34:22;;;;;;;5.90;3.30;;;;;;;17.62;46.53;96454.05;107688;1270;33657;-80
2022/05/12 03:36:53;;;;;;;5.80;4.10;;;;;;;17.59;46.66;96446.34;107674;1268;39606;-80
2022/05/12 03:39:24;;;;;;;5.00;2.70;;;;;;;17.63;46.38;96455.78;107705;1268;33935;-80
2022/05/12 03:41:55;;;;;;;5.80;3.70;;;;;;;17.68;46.57;96455.18;107714;1268;34134;-79
2022/05/12 03:47:19;;;;;;;4.70;4.00;;;;;;;17.55;47.12;96449.42;107729;1268;42166;-80
2022/05/12 03:49:53;;;;;;;5.20;4.10;;;;;;;17.48;47.32;96442.14;107701;1268;40798;-80
2022/05/12 03:52:25;;;;;;;4.50;3.70;;;;;;;17.51;47.26;96446.74;107648;1268;40748;-80
2022/05/12 03:54:56;;;;;;;5.10;2.90;;;;;;;17.54;47.21;96447.70;107683;1270;34536;-81
2022/05/12 03:57:29;;;;;;;5.30;4.00;;;;;;;17.60;46.97;96440.65;107677;1268;40919;-80
2022/05/12 04:00:00;;;;;;;5.40;4.20;;;;;;;17.68;47.20;96445.73;107685;1268;36107;-80
2022/05/12 04:02:31;;;;;;;4.90;3.80;;;;;;;17.67;47.12;96449.09;107693;1268;44175;-80
2022/05/12 04:05:02;;;;;;;8.30;4.10;;;;;;;17.68;47.23;96453.77;107660;1268;81010;-80
2022/05/12 04:07:34;;;;;;;5.60;3.70;;;;;;;17.72;47.10;96456.05;107651;1270;33530;-80
2022/05/12 04:10:06;;;;;;;6.70;4.70;;;;;;;17.79;46.97;96457.77;107467;1271;41973;-79
2022/05/12 04:12:37;;;;;;;5.80;4.20;;;;;;;17.88;46.91;96461.35;107757;1269;33268;-80
2022/05/12 04:15:10;;;;;;;8.30;4.30;;;;;;;17.98;46.91;96462.17;107607;1270;36593;-80
2022/05/12 04:17:41;;;;;;;5.00;3.80;;;;;;;18.01;46.94;96464.23;107541;1270;51985;-79
2022/05/12 04:20:14;;;;;;;5.70;4.50;;;;;;;18.05;46.92;96463.74;107534;1268;41404;-80
2022/05/12 04:22:45;;;;;;;5.60;4.10;;;;;;;18.09;46.75;96468.86;107569;1270;47976;-80
2022/05/12 04:25:16;;;;;;;4.70;3.70;;;;;;;18.12;46.80;96463.91;107604;1269;33042;-80
2022/05/12 04:27:47;;;;;;;5.60;3.80;;;;;;;18.16;47.04;96460.15;107646;1270;48734;-80
2022/05/12 04:30:22;;;;;;;5.70;4.30;;;;;;;18.22;47.06;96461.96;107643;1270;37162;-80
2022/05/12 04:32:54;;;;;;;7.40;4.20;;;;;;;18.29;47.09;96462.58;107485;1270;44186;-80
2022/05/12 04:35:25;;;;;;;5.50;4.20;;;;;;;18.39;47.07;96463.08;107570;1268;31910;-80
2022/05/12 04:37:58;;;;;;;4.90;4.10;;;;;;;18.53;46.98;96459.12;107535;1270;42081;-80
2022/05/12 04:40:31;;;;;;;7.50;4.10;;;;;;;18.73;46.73;96460.41;107637;1270;34620;-80
2022/05/12 04:43:02;;;;;;;4.80;4.10;;;;;;;18.94;46.27;96457.25;107526;1270;51229;-81
2022/05/12 04:45:34;;;;;;;5.10;3.90;;;;;;;19.23;45.62;96461.48;107565;1270;41874;-80
2022/05/12 04:48:05;;;;;;;4.50;3.80;;;;;;;19.76;45.00;96458.77;107560;1269;35855;-80
2022/05/12 04:50:40;;;;;;;8.30;3.80;;;;;;;21.06;43.27;96459.33;107520;1270;104749;-80
2022/05/12 04:53:11;;;;;;;6.10;3.80;;;;;;;22.58;40.43;96450.49;107598;1270;49341;-79
2022/05/12 04:55:45;;;;;;;4.70;3.40;;;;;;;23.55;38.68;96455.91;107598;1270;39005;-81
2022/05/12 04:58:16;;;;;;;5.90;3.60;;;;;;;24.31;37.11;96458.65;107715;1270;43230;-80
2022/05/12 05:00:47;;;;;;;6.80;3.80;;;;;;;24.82;35.58;96454.44;107698;1269;41302;-80
2022/05/12 05:03:18;;;;;;;3.80;3.10;;;;;;;25.18;34.95;96457.85;107709;1269;33699;-80
2022/05/12 05:05:50;;;;;;;4.30;3.40;;;;;;;25.54;33.87;96453.05;107616;1270;38057;-80
2022/05/12 05:08:23;;;;;;;3.50;3.20;;;;;;;25.77;33.98;96462.05;107409;1270;96582;-81
2022/05/12 05:10:55;;;;;;;4.10;3.00;;;;;;;26.08;33.82;96453.18;107650;1270;39782;-81
2022/05/12 05:13:26;;;;;;;6.70;3.50;;;;;;;26.64;32.98;96454.44;107594;1270;80600;-81
2022/05/12 05:15:58;;;;;;;4.10;3.30;;;;;;;27.22;32.28;96455.81;107597;1270;69511;-81
2022/05/12 05:18:30;;;;;;;7.20;3.50;;;;;;;27.56;31.70;96458.48;107509;1270;127375;-81
2022/05/12 05:21:01;;;;;;;4.30;3.30;;;;;;;27.72;31.03;96459.56;107590;1270;87838;-81
2022/05/12 05:23:32;;;;;;;4.00;3.00;;;;;;;27.87;30.95;96467.55;107703;1268;64420;-81
2022/05/12 05:26:04;;;;;;;3.80;3.10;;;;;;;28.10;30.89;96461.14;107628;1270;64911;-81
2022/05/12 05:28:36;;;;;;;4.00;2.90;;;;;;;28.52;30.63;96458.23;107677;1270;40364;-81
2022/05/12 05:31:07;;;;;;;4.30;3.20;;;;;;;28.42;29.71;96453.61;107648;1268;37674;-81
2022/05/12 05:33:38;;;;;;;4.20;3.20;;;;;;;28.45;30.33;96462.00;107684;1268;33197;-81
2022/05/12 05:36:09;;;;;;;5.60;3.00;;;;;;;28.94;29.91;96461.78;107614;1268;45543;-81
2022/05/12 05:38:40;;;;;;;4.80;3.20;;;;;;;29.40;29.21;96459.07;107705;1268;32702;-82
2022/05/12 05:41:11;;;;;;;4.70;3.60;;;;;;;29.75;28.94;96454.05;107704;1268;38590;-82
2022/05/12 05:43:42;;;;;;;5.30;2.90;;;;;;;30.16;28.51;96455.92;107611;1268;92276;-82
2022/05/12 05:46:14;;;;;;;3.30;2.90;;;;;;;30.48;27.64;96455.12;107667;1268;63056;-82
2022/05/12 05:48:46;;;;;;;4.00;3.20;;;;;;;30.39;27.79;96454.99;107735;1268;63301;-81
2022/05/12 05:54:05;;;;;;;4.30;2.90;;;;;;;30.73;27.59;96452.05;107688;1268;74859;-82
2022/05/12 05:56:36;;;;;;;5.80;3.70;;;;;;;30.95;27.31;96446.31;107650;1268;42474;-81
2022/05/12 05:59:07;;;;;;;4.50;3.00;;;;;;;31.15;27.01;96456.33;107680;1270;43220;-82
2022/05/12 06:01:38;;;;;;;6.60;3.30;;;;;;;31.42;27.04;96452.67;107642;1268;42679;-82
2022/05/12 06:04:09;;;;;;;3.60;3.30;;;;;;;31.91;26.30;96450.92;107607;1270;38552;-83
2022/05/12 06:06:42;;;;;;;4.30;3.20;;;;;;;31.82;25.99;96450.63;107619;1270;48045;-82
2022/05/12 06:09:13;;;;;;;4.60;3.00;;;;;;;31.71;26.71;96450.83;107894;1268;32436;-82
2022/05/12 06:11:46;;;;;;;3.50;3.00;;;;;;;32.04;26.26;96450.65;107644;1268;97432;-82
2022/05/12 06:14:17;;;;;;;3.70;2.70;;;;;;;32.22;26.10;96444.57;107734;1269;114402;-83
2022/05/12 06:16:48;;;;;;;5.60;3.30;;;;;;;32.40;25.81;96446.63;107721;1268;111485;-82
2022/05/12 06:19:19;;;;;;;4.50;2.90;;;;;;;32.52;25.63;96450.69;107608;1270;89323;-82
2022/05/12 06:21:51;;;;;;;4.30;3.20;;;;;;;32.56;25.84;96445.35;107693;1268;49993;-81
2022/05/12 06:24:23;;;;;;;3.90;3.00;;;;;;;32.48;25.57;96439.71;107578;1270;109065;-82
2022/05/12 06:26:54;;;;;;;5.90;3.10;;;;;;;32.51;25.60;96437.52;107642;1268;95618;-82
2022/05/12 06:29:25;;;;;;;4.30;2.90;;;;;;;32.40;25.71;96430.88;107622;1270;103695;-83
2022/05/12 06:31:56;;;;;;;4.50;3.20;;;;;;;32.52;25.58;96433.84;107621;1269;50389;-82
2022/05/12 06:34:26;;;;;;;5.00;3.30;;;;;;;32.02;25.48;96426.86;107641;1268;65301;-83
2022/05/12 06:36:59;;;;;;;5.40;3.00;;;;;;;31.99;26.11;96427.64;107645;1270;56506;-84
2022/05/12 06:39:30;;;;;;;6.10;3.20;;;;;;;32.76;26.28;96425.98;107714;1269;31653;-83
2022/05/12 06:42:01;;;;;;;5.10;3.00;;;;;;;33.29;25.25;96420.54;107710;1268;33612;-82
2022/05/12 06:44:34;;;;;;;5.00;3.30;;;;;;;33.54;24.63;96425.80;107655;1270;36436;-82
2022/05/12 06:47:09;;;;;;;8.30;3.50;;;;;;;33.31;24.58;96426.88;107703;1268;33607;-82
2022/05/12 06:49:41;;;;;;;5.40;2.80;;;;;;;33.08;25.35;96429.23;107708;1268;55115;-82
2022/05/12 06:52:12;;;;;;;4.60;2.90;;;;;;;33.38;25.25;96425.76;107699;1270;40959;-83
2022/05/12 06:54:44;;;;;;;4.30;3.50;;;;;;;33.67;24.90;96429.68;107704;1268;39935;-83
2022/05/12 06:57:22;;;;;;;3.80;3.10;;;;;;;33.79;25.07;96421.65;107753;1269;44330;-83
2022/05/12 06:59:53;;;;;;;4.40;2.70;;;;;;;34.40;24.74;96427.40;107658;1269;38094;-83
2022/05/12 07:02:25;;;;;;;4.00;2.90;;;;;;;34.72;24.16;96428.16;107689;1268;42910;-81
2022/05/12 07:04:57;;;;;;;4.00;3.00;;;;;;;34.50;23.82;96426.45;107715;1269;39213;-83
2022/05/12 07:07:28;;;;;;;3.50;2.60;;;;;;;34.39;24.58;96435.44;107706;1268;45039;-82
2022/05/12 07:09:59;;;;;;;5.30;3.00;;;;;;;34.79;24.75;96430.85;107676;1268;44614;-83
2022/05/12 07:12:29;;;;;;;5.00;2.90;;;;;;;35.49;24.21;96437.63;107578;1270;45908;-83
2022/05/12 07:15:01;;;;;;;3.00;2.70;;;;;;;35.70;23.29;96437.20;107739;1270;39615;-82
2022/05/12 07:17:33;;;;;;;2.90;2.60;;;;;;;35.90;23.48;96445.11;107696;1270;30772;-82
2022/05/12 07:28:26;;;;;;;3.30;2.60;;;;;;;34.64;23.98;96446.82;107716;1268;36953;-81
2022/05/12 07:31:03;;;;;;;4.30;2.50;;;;;;;35.05;23.20;96447.11;107621;1269;49037;-81
2022/05/12 07:33:37;;;;;;;3.70;2.50;;;;;;;35.01;23.88;96449.31;107675;1268;50015;-81
2022/05/12 07:36:12;;;;;;;4.40;2.80;;;;;;;35.92;23.55;96445.90;107630;1270;58903;-82
2022/05/12 07:38:45;;;;;;;4.60;2.60;;;;;;;36.40;23.33;96444.92;107693;1268;36866;-82
2022/05/12 07:41:17;;;;;;;3.10;2.60;;;;;;;37.17;22.76;96444.77;107756;1271;43699;-82
2022/05/12 07:43:49;;;;;;;3.00;2.40;;;;;;;37.70;22.15;96444.99;107719;1270;39771;-83
2022/05/12 07:46:23;;;;;;;5.90;2.60;;;;;;;38.53;21.86;96439.63;107783;1271;38534;-81
2022/05/12 07:48:54;;;;;;;3.70;2.60;;;;;;;39.04;21.22;96435.40;107712;1268;44534;-82
2022/05/12 07:51:26;;;;;;;4.80;2.60;;;;;;;38.36;20.11;96433.22;107682;1268;36186;-83
2022/05/12 07:53:57;;;;;;;2.60;2.30;;;;;;;37.62;21.31;96438.23;107688;1270;34802;-82
2022/05/12 07:56:30;;;;;;;4.50;2.70;;;;;;;36.82;21.47;96429.62;107677;1270;46188;-82
2022/05/12 07:59:02;;;;;;;4.10;2.80;;;;;;;35.31;21.68;96422.24;107580;1270;43959;-83
2022/05/12 08:01:33;;;;;;;3.10;2.50;;;;;;;35.36;22.52;96432.52;107702;1269;41898;-83
2022/05/12 08:04:05;;;;;;;3.90;2.40;;;;;;;35.36;22.21;96432.63;107666;1270;35260;-82
2022/05/12 08:06:36;;;;;;;3.40;2.50;;;;;;;35.37;22.09;96428.35;107664;1268;42206;-82
2022/05/12 08:09:07;;;;;;;2.80;2.50;;;;;;;35.70;22.86;96423.40;107660;1268;41374;-81
2022/05/12 08:11:39;;;;;;;3.80;2.70;;;;;;;36.54;21.73;96422.63;107655;1270;33361;-82
2022/05/12 08:14:10;;;;;;;3.00;2.50;;;;;;;37.00;21.83;96420.44;107689;1268;34845;-82
2022/05/12 08:16:41;;;;;;;4.20;2.80;;;;;;;37.36;21.60;96416.80;107687;1270;33101;-82
2022/05/12 08:19:12;;;;;;;2.90;2.60;;;;;;;37.18;22.05;96427.35;107688;1268;36465;-81
2022/05/12 08:21:43;;;;;;;3.90;2.30;;;;;;;37.63;20.72;96420.39;107706;1270;33428;-82
2022/05/12 08:24:14;;;;;;;2.20;2.00;;;;;;;36.80;20.16;96412.60;107800;1268;34345;-83
2022/05/12 08:26:45;;;;;;;3.60;2.40;;;;;;;36.09;21.18;96412.39;107760;1270;56247;-82
2022/05/12 08:29:16;;;;;;;2.90;2.40;;;;;;;36.47;22.09;96416.98;107770;1270;29857;-82
2022/05/12 08:31:47;;;;;;;4.10;2.50;;;;;;;36.42;21.03;96409.28;107700;1270;32286;-82
2022/05/12 08:34:18;;;;;;;4.60;2.70;;;;;;;36.03;21.69;96415.69;107764;1269;33550;-80
2022/05/12 08:36:50;;;;;;;2.90;2.60;;;;;;;35.97;21.51;96420.01;107741;1268;43514;-79
2022/05/12 08:39:21;;;;;;;3.80;2.40;;;;;;;35.76;21.97;96420.45;107714;1271;34904;-81
2022/05/12 08:41:59;;;;;;;3.60;2.40;;;;;;;36.05;22.26;96415.66;107708;1268;36485;-82
2022/05/12 08:44:36;;;;;;;4.60;2.50;;;;;;;36.11;22.38;96416.69;107698;1270;39007;-81
2022/05/12 08:47:11;;;;;;;2.90;2.20;;;;;;;35.41;21.58;96414.69;107681;1271;40239;-82
2022/05/12 08:49:46;;;;;;;8.30;2.10;;;;;;;33.38;21.86;96409.21;107679;1271;35197;-80
2022/05/12 08:52:23;;;;;;;4.80;2.20;;;;;;;32.59;22.69;96415.68;107837;1269;34116;-81
2022/05/12 08:54:57;;;;;;;4.00;2.20;;;;;;;32.20;23.63;96416.80;107689;1268;42825;-81
2022/05/12 08:57:34;;;;;;;5.40;2.10;;;;;;;33.16;22.73;96428.48;107717;1268;36807;-80
2022/05/12 09:00:10;;;;;;;3.90;2.30;;;;;;;33.45;22.74;96421.71;107630;1270;41445;-82
2022/05/12 09:02:52;;;;;;;4.50;1.60;;;;;;;33.03;21.89;96406.75;107626;1270;36140;-81
2022/05/12 09:05:28;;;;;;;6.80;2.50;;;;;;;32.78;22.49;96418.73;107598;1270;45377;-80
2022/05/12 09:08:06;;;;;;;2.70;2.00;;;;;;;33.14;23.02;96413.16;107713;1268;31894;-80
2022/05/12 09:11:00;;;;;;;3.30;2.10;;;;;;;33.05;22.96;96417.30;107633;1270;47925;-81
2022/05/12 09:13:35;;;;;;;4.60;2.30;;;;;;;31.50;23.74;96411.31;107729;1268;34321;-80
2022/05/12 09:16:15;;;;;;;4.40;2.30;;;;;;;30.01;25.60;96413.12;107725;1268;43380;-80
2022/05/12 09:18:46;;;;;;;2.90;2.50;;;;;;;29.23;27.58;96429.18;107786;1270;36173;-80
2022/05/12 09:21:22;;;;;;;3.70;1.50;;;;;;;29.21;27.37;96430.05;107751;1270;36888;-81
2022/05/12 09:23:52;;;;;;;3.20;2.20;;;;;;;28.49;27.21;96421.54;107714;1268;35770;-79
2022/05/12 09:26:40;;;;;;;3.90;2.40;;;;;;;27.83;28.67;96428.86;107711;1268;42651;-78
2022/05/12 09:29:15;;;;;;;6.90;3.00;;;;;;;27.40;29.30;96426.46;107652;1269;40970;-80
2022/05/12 09:31:48;;;;;;;5.80;2.90;;;;;;;27.03;29.55;96432.96;107790;1269;40761;-80
2022/05/12 09:34:24;;;;;;;2.90;2.60;;;;;;;26.62;30.13;96435.48;107800;1271;40081;-80
2022/05/12 09:36:55;;;;;;;5.30;2.80;;;;;;;26.45;31.05;96437.70;107677;1270;33400;-80
2022/05/12 09:39:41;;;;;;;3.30;2.60;;;;;;;26.39;31.04;96439.88;107644;1269;40101;-80
2022/05/12 09:42:26;;;;;;;5.80;2.30;;;;;;;26.47;31.04;96436.40;107673;1270;37075;-80
2022/05/12 09:44:59;;;;;;;2.20;1.90;;;;;;;26.69;31.51;96433.94;107681;1269;33922;-80
2022/05/12 09:47:32;;;;;;;6.60;2.90;;;;;;;26.69;30.92;96427.34;107671;1268;44093;-79
2022/05/12 09:50:18;;;;;;;5.20;2.80;;;;;;;26.61;31.39;96429.73;107644;1268;48719;-80
2022/05/12 09:53:00;;;;;;;5.30;3.10;;;;;;;26.72;32.17;96436.20;107770;1268;42709;-80
2022/05/12 09:55:33;;;;;;;8.50;2.80;;;;;;;26.86;32.47;96433.17;107668;1271;42885;-79
2022/05/12 09:58:07;;;;;;;4.90;3.10;;;;;;;26.94;32.56;96442.04;107661;1270;35362;-80
2022/05/12 10:00:42;;;;;;;8.50;3.10;;;;;;;27.01;33.14;96442.13;107690;1268;40400;-80
2022/05/12 10:09:10;;;;;;;6.40;2.90;;;;;;;26.59;32.15;96439.35;107708;1268;33718;-80
2022/05/12 10:11:48;;;;;;;3.50;3.00;;;;;;;26.33;32.86;96441.77;107692;1269;34229;-79
2022/05/12 10:14:34;;;;;;;6.50;2.80;;;;;;;26.59;33.39;96437.42;107768;1271;34137;-80
2022/05/12 10:17:10;;;;;;;4.80;3.10;;;;;;;26.52;33.40;96439.98;107694;1270;38089;-79
2022/05/12 10:19:42;;;;;;;4.90;3.10;;;;;;;26.67;33.32;96434.86;107637;1268;44563;-80
2022/05/12 10:22:23;;;;;;;4.10;2.90;;;;;;;26.76;33.50;96446.77;107689;1271;42675;-80
2022/05/12 10:25:08;;;;;;;6.30;2.80;;;;;;;26.59;33.25;96429.50;107707;1270;30745;-80
2022/05/12 10:27:52;;;;;;;4.60;2.70;;;;;;;26.41;32.99;96439.09;107740;1271;31894;-80
2022/05/12 10:30:39;;;;;;;4.30;2.50;;;;;;;26.56;33.87;96447.21;107696;1270;43556;-79
2022/05/12 10:33:29;;;;;;;5.50;2.70;;;;;;;26.59;32.73;96428.56;107748;1268;42316;-81
2022/05/12 10:36:16;;;;;;;5.20;2.50;;;;;;;26.39;33.13;96434.29;107636;1271;46332;-80
2022/05/12 10:38:58;;;;;;;4.90;2.80;;;;;;;26.40;33.62;96442.83;107720;1268;33386;-81
2022/05/12 10:41:35;;;;;;;4.40;3.30;;;;;;;26.45;33.02;96431.02;107662;1270;36280;-81
2022/05/12 10:44:29;;;;;;;5.00;3.40;;;;;;;26.36;33.21;96439.78;107682;1271;41406;-80
2022/05/12 10:47:08;;;;;;;7.00;3.00;;;;;;;26.40;33.72;96433.51;107667;1268;44234;-80
2022/05/12 10:49:44;;;;;;;6.90;3.50;;;;;;;26.25;32.87;96429.72;107736;1268;33165;-80
2022/05/12 10:52:26;;;;;;;5.30;3.40;;;;;;;26.21;33.60;96432.65;107781;1271;34912;-80
2022/05/12 10:55:12;;;;;;;5.00;2.60;;;;;;;26.59;34.04;96433.84;107652;1268;47028;-80
2022/05/12 10:57:52;;;;;;;3.70;2.50;;;;;;;26.73;33.07;96432.55;107654;1270;41841;-81
2022/05/12 11:00:44;;;;;;;7.40;3.80;;;;;;;26.40;32.25;96423.94;107653;1268;74332;-80
2022/05/12 11:03:21;;;;;;;7.00;3.60;;;;;;;26.21;33.32;96430.41;107741;1270;32030;-80
2022/05/12 11:05:57;;;;;;;5.40;3.00;;;;;;;26.40;33.57;96432.65;107649;1271;47038;-80
2022/05/12 11:08:34;;;;;;;3.70;3.20;;;;;;;26.21;32.79;96435.30;107703;1268;33715;-81
2022/05/12 11:11:09;;;;;;;5.20;3.40;;;;;;;25.94;33.03;96437.69;107655;1271;34525;-81
2022/05/12 11:13:46;;;;;;;3.10;2.70;;;;;;;25.67;33.18;96440.11;107636;1269;52142;-81
2022/05/12 11:16:22;;;;;;;11.40;3.40;;;;;;;25.42;33.10;96434.60;107552;1271;248821;-81
2022/05/12 11:19:01;;;;;;;6.70;3.80;;;;;;;25.46;33.55;96442.23;107669;1270;44114;-80
2022/05/12 11:21:38;;;;;;;6.00;3.50;;;;;;;25.66;33.30;96437.00;107655;1271;40656;-81
2022/05/12 11:24:21;;;;;;;3.60;2.90;;;;;;;25.75;33.87;96443.73;107707;1268;33406;-81
2022/05/12 11:27:11;;;;;;;7.00;3.60;;;;;;;25.97;33.82;96449.19;107734;1268;38635;-80
2022/05/12 11:29:54;;;;;;;4.70;3.30;;;;;;;26.00;32.89;96439.41;107695;1271;46755;-81
2022/05/12 11:32:36;;;;;;;2.70;2.40;;;;;;;25.69;31.91;96436.48;107704;1269;56142;-81
2022/05/12 11:35:10;;;;;;;4.30;3.20;;;;;;;25.65;32.35;96431.79;107694;1268;38420;-81
2022/05/12 11:37:58;;;;;;;5.40;3.10;;;;;;;25.96;31.73;96419.22;107680;1271;41418;-81
2022/05/12 11:40:55;;;;;;;3.80;3.10;;;;;;;26.27;32.13;96435.70;107620;1271;46686;-81
2022/05/12 11:47:04;;;;;;;6.50;3.40;;;;;;;26.39;31.44;96426.82;107703;1272;41026;-81
2022/05/12 11:49:47;;;;;;;5.90;3.60;;;;;;;26.59;31.26;96428.95;107473;1268;34277;-81
2022/05/12 11:52:37;;;;;;;6.50;3.00;;;;;;;26.65;31.46;96432.30;107769;1271;34685;-81
2022/05/12 11:55:21;;;;;;;3.20;2.00;;;;;;;26.69;31.32;96433.23;107625;1271;45790;-81
2022/05/12 11:58:04;;;;;;;3.40;2.40;;;;;;;26.46;30.55;96426.91;107703;1270;34235;-81
2022/05/12 12:01:00;;;;;;;3.70;3.20;;;;;;;26.39;31.72;96447.87;107719;1268;33779;-81
2022/05/12 12:03:58;;;;;;;6.90;3.40;;;;;;;26.61;31.29;96444.80;107651;1270;40492;-82
2022/05/12 12:06:45;;;;;;;5.00;3.00;;;;;;;26.62;31.56;96442.65;107689;1268;37358;-82
2022/05/12 12:09:47;;;;;;;4.00;2.20;;;;;;;26.44;31.83;96448.66;107762;1271;31759;-81
2022/05/12 12:12:49;;;;;;;7.00;3.20;;;;;;;26.52;31.61;96448.05;107742;1269;33994;-81
2022/05/12 12:15:45;;;;;;;3.20;2.80;;;;;;;26.17;31.48;96456.48;107579;1270;37636;-78
2022/05/12 12:18:56;;;;;;;5.10;3.40;;;;;;;25.96;31.33;96449.42;107736;1268;37921;-81
2022/05/12 12:21:47;;;;;;;3.90;2.90;;;;;;;26.13;31.45;96451.73;107657;1268;38295;-81